aviador You're here:

KBHK Decoded Metar

BAKER in MT, USA
Report Time2018-04-26 12:51:00
UTC Time2018-04-26 13:24:40
Flight Rules vfr VFR
Wind250° at 03 kt
W.Decomp.*RWY 31: 0.9 kt HW 2.9 kt LCW
W.Rank250° ranks 14
Current wind is below 250° avg. (9.8)
Visibility9999 m
Phenomena:N/A
Clouds:Few 075 Hf
Expected CloudBase > 400 ft AGL from Temp-Dew spread
CeilingNone
Temp01°C (ISA -8)
Dew Point00°C (93% RH)
AAT-2.1°C
QNH1023 hPa
Density Alt1,732 ft
Elevation2,959 ft
Report Wrong Elevation
Raw Report
KBHK 261251Z AUTO 25003KT 10SM FEW075 01/00 A3021 RMK AO2 SLP238
T00110000=

Extra information for KBHK:More info

Metar Taf Metar & Taf Last 4 Metars F.Rules Stats Wind Profile Meteogram Temp Stats Airport Information Weather charts Add Link Nearby VenuesMetar ALERT Operation Metar Decoded Social comments

AIRNAV info for KBHK